Weather observations for the past three days for
Ephraim-Gibraltar Airport
Metric (Imperial)
Date Time (cdt) Wind (kph) Vis. (km) Weather Sky Cond. Temperature (ºC) Relative Humidity Wind Chill (°C) Heat Index (°C) Pressure Precipitation (cm)
Air Dwpt 6 hour altimeter (cm) sea level (mb) 1 hr 3 hr 6 hr
Max. Min.
03 00:55 E 6 16.09 Partly Cloudy SCT120 18.7 18.2 21.8 18.1 97% 76.02 0.0
03 00:35 E 6 16.09 Fair CLR 18.6 18.1 97% 76.02 0.0
03 00:15 E 9 16.09 Fair CLR 18.4 17.9 97% 76 0.0
02 23:55 Calm 16.09 Fair CLR 18.5 17.9 96% 76 0.0
02 23:35 NE 7 16.09 Fair CLR 18.7 18 96% 76.02 0.0
02 23:15 Calm 16.09 Fair CLR 18.9 18.3 96% 76 0.0
02 22:55 SW 6 16.09 Fair CLR 19 18.5 97% 75.97 0.0
02 22:35 S 7 16.09 Fair CLR 19 18.5 97% 76 0.0
02 22:15 S 7 16.09 Fair CLR 19.1 18.5 96% 75.97 0.0
02 21:55 S 7 16.09 Fair CLR 19.1 18.5 96% 75.97 0.0
02 21:35 S 7 16.09 Fair CLR 19.1 18.5 96% 75.97 0.0
02 21:15 S 7 16.09 Fair CLR 19.1 18.3 95% 75.97 0.0
02 20:55 S 7 16.09 Fair CLR 19 18.1 95% 75.97 0.0
02 20:35 S 7 16.09 Fair CLR 19 18.3 96% 75.95 0.0
02 20:15 S 6 16.09 Fair CLR 19 18.4 96% 75.95 0.0
02 19:55 Calm 16.09 Fair CLR 19.4 18.2 93% 75.92 0.0
02 19:35 Calm 16.09 Fair CLR 19.8 18.3 91% 75.92 0.0
02 19:15 Calm 16.09 Fair CLR 20.7 18.3 86% 75.92 0.0
02 18:55 SE 6 16.09 Fair CLR 21.9 17.5 25.6 21.9 76% 75.92 0.0
02 18:35 SE 6 16.09 Fair CLR 23 17.3 70% 75.95 0.0
02 18:15 SE 6 16.09 Fair CLR 23.8 17.2 67% 75.92 0.0
02 17:55 Calm 16.09 Fair CLR 24.9 16.6 60% 26 75.92 0.0
02 17:35 Calm 16.09 Fair CLR 25.4 15.5 54% 26 75.92 0.0
02 17:15 W 6 16.09 Fair CLR 25.4 15.6 55% 26 75.95 0.0
02 16:55 W 6 16.09 Fair CLR 25.4 15.7 55% 26 75.95 0.0
02 16:35 Calm 16.09 Fair CLR 25.3 15.7 55% 26 75.95 0.0
02 16:15 Calm 16.09 Fair CLR 25.2 15.8 56% 26 75.95 0.0
02 15:55 Calm 16.09 Fair CLR 24.8 15.5 56% 26 75.95 0.0
02 15:35 W 7 16.09 Fair CLR 24.3 15.4 58% 25 75.97 0.0
02 15:15 Calm 16.09 Fair CLR 24.8 14.7 54% 26 75.97 0.0
02 14:55 W 6 16.09 Fair CLR 24.8 14.4 52% 26 75.97 0.0
02 14:35 SW 9 16.09 Fair CLR 24.7 13.9 51% 26 75.97 0.0
02 14:15 SW 11 16.09 Fair CLR 24.4 13.7 51% 26 76 0.0
02 13:55 W 6 16.09 Fair CLR 24.6 14 52% 26 76 0.0
02 13:35 W 7 16.09 Fair CLR 24.5 14.3 53% 26 76 0.0
02 13:15 W 9 16.09 Fair CLR 23.8 14.2 55% 76.02 0.0
02 12:55 W 7 16.09 Fair CLR 23.8 14.8 23.8 17.2 57% 76.02 0.0
02 12:35 SW 7 16.09 Fair CLR 23.3 15.3 61% 76.02 0.0
02 12:15 Calm 16.09 Fair CLR 22.8 16 66% 76.02 0.0
02 11:55 Calm 16.09 Fair CLR 22.8 16.6 68% 76.05 0.0
02 11:35 W 6 16.09 Fair CLR 22 16.9 73% 76.02 0.0
02 11:15 Calm 16.09 Partly Cloudy SCT015 SCT023 21.8 17.5 77% 76.02 0.0
02 10:55 Calm 16.09 Partly Cloudy SCT013 SCT018 21.3 17.4 79% 76.05 0.0
02 10:35 Calm 16.09 Partly Cloudy SCT011 21.1 18.3 84% 76 0.0
02 10:15 Calm 16.09 Partly Cloudy SCT005 19.9 18.4 91% 75.97 0.0
02 09:55 Calm 16.09 Fair CLR 18.7 18.1 96% 76.05 0.0
02 09:35 W 7 16.09 Fair CLR 18.8 18.2 96% 76.05 0.0
02 09:15 Calm 16.09 Fair CLR 18.7 18.2 97% 76.05 0.0
02 08:55 Calm 16.09 Light Drizzle SCT110 18.3 17.8 97% 76.1 0.0
02 08:35 Calm 16.09 Light Rain SCT039 SCT049 SCT060 18 17.5 97% 76.07 0.0
02 08:15 W 6 16.09 Partly Cloudy SCT110 17.9 17.2 96% 76.07 0.0
02 07:55 W 7 16.09 Fair CLR 17.5 17 97% 76.05 0.0
02 07:35 SW 11 16.09 Partly Cloudy SCT110 17.4 16.9 97% 76.02 0.0
02 07:15 SE 11 16.09 Light Rain SCT080 BKN110 17.3 16.8 97% 75.84 0.0
02 06:55 E 11 16.09 Light Rain OVC095 17.5 17 22.6 17.5 97% 75.87 0.0
02 06:35 NW 6 11.27 Heavy Rain SCT075 BKN085 OVC110 18.2 17.7 97% 76.15 0.0
02 06:15 W 11 11.27 Rain OVC100 18.7 17.5 93% 76.23 0.0
02 05:55 W 15 16.09 Rain OVC110 19.5 16.8 84% 76.2 0.0
02 05:35 W 11 16.09 Mostly Cloudy SCT100 BKN120 19.8 18.4 92% 76.12 0.0
02 05:15 W 7 16.09 Partly Cloudy SCT120 19.2 16.4 84% 76.02 0.0
02 04:55 Calm 16.09 Fair CLR 18.2 16 87% 75.97 0.0
02 04:35 Calm 16.09 Fair CLR 17.9 16.7 93% 75.97 0.0
02 04:15 Calm 16.09 Fair CLR 18 16.6 92% 75.97 0.0
02 03:55 Calm 16.09 Fair CLR 18.1 16.6 91% 75.97 0.0
02 03:35 Calm 16.09 Fair CLR 17.7 16.8 95% 75.97 0.0
02 03:15 Calm 16.09 Fair CLR 18.1 17.2 95% 75.97 0.0
02 02:55 Calm 16.09 Fair CLR 19.5 16.8 84% 75.97 0.0
02 02:35 Calm 16.09 Fair CLR 20.9 16.3 75% 75.95 0.0
02 02:15 N 6 16.09 Fair CLR 21 16.1 74% 75.97 0.0
02 01:55 N 7 16.09 Fair CLR 21.2 15.6 71% 75.97 0.0
02 01:35 N 7 16.09 Fair CLR 21.6 15.2 67% 75.97 0.0
02 01:15 N 9 16.09 Fair CLR 22.3 14.5 61% 75.95 0.0
02 00:55 N 11 16.09 Fair CLR 22.6 14.9 25.6 22.1 62% 75.95 0.0
02 00:35 N 11 16.09 Fair CLR 23 16.3 66% 75.92 0.0
02 00:15 NW 9 16.09 Fair CLR 23.7 17.7 69% 75.92 0.0
01 23:55 W 13 16.09 Fair CLR 24.1 18.9 73% 25 75.95 0.0
01 23:35 W 6 16.09 Fair CLR 23.7 21.1 85% 75.92 0.0
01 23:15 W 7 16.09 Fair CLR 23.6 21 85% 75.92 0.0
01 22:55 W 6 16.09 Fair CLR 23.5 21.5 89% 75.92 0.0
01 22:35 Calm 16.09 Fair CLR 23.1 21.9 93% 75.9 0.0
01 22:15 Calm 16.09 Fair CLR 22.1 21.5 96% 75.9 0.0
01 21:55 Calm 11.27 Fair CLR 22.3 21.7 96% 75.9 0.0
01 21:35 Calm 16.09 Fair CLR 22.6 22.1 97% 75.9 0.0
01 21:15 Calm 16.09 Fair CLR 23.4 22.7 96% 75.9 0.0
01 20:55 Calm 16.09 Fair CLR 23.7 23.1 96% 75.9 0.0
01 20:35 S 6 16.09 Fair CLR 24 23.5 97% 23 75.87 0.0
01 20:15 S 7 16.09 Fair CLR 24.4 23.5 95% 24 75.87 0.0
01 19:55 S 7 16.09 Fair CLR 24.6 23.3 93% 25 75.84 0.0
01 19:35 S 6 16.09 Fair CLR 24.7 23.2 91% 25 75.84 0.0
01 19:15 S 7 16.09 Fair CLR 25.2 23 88% 26 75.84 0.0
01 18:55 S 7 16.09 Fair CLR 25.7 23 29.4 25.7 85% 27 75.87 0.0
01 18:35 S 7 16.09 Fair CLR 26.3 23.1 83% 28 75.87 0.0
01 18:15 S 9 16.09 Fair CLR 26.8 22.8 79% 29 75.87 0.0
01 17:55 S 6 16.09 Fair CLR 26.7 22.3 77% 29 75.87 0.0
01 17:35 S 11 16.09 Fair CLR 27.3 21.9 72% 30 75.87 0.0
01 17:15 S 11 16.09 Fair CLR 28.3 21.2 65% 31 75.87 0.0
01 16:55 S 9 16.09 Fair CLR 28.6 21.6 66% 31 75.9 0.0
01 16:35 S 9 16.09 Fair CLR 29.2 21.5 63% 32 75.9 0.0
01 16:15 SE 13 16.09 Fair CLR 28.6 21.4 65% 31 75.9 0.0
01 15:55 S 11 16.09 Fair CLR 28.5 21.5 66% 31 75.9 0.0
01 15:35 S 15 16.09 Fair CLR 28.5 20.9 63% 31 75.92 0.0
01 15:15 S 15 16.09 Fair CLR 27.9 21.1 67% 30 75.92 0.0
01 14:55 S 15 16.09 Fair CLR 28.9 20.9 62% 31 75.95 0.0
01 14:35 S 19 G 26 16.09 Fair CLR 28.7 20.9 63% 31 75.95 0.0
01 14:15 SE 11 16.09 Partly Cloudy SCT024 SCT034 SCT041 29.1 21.6 64% 32 75.95 0.0
01 13:55 S 11 16.09 Mostly Cloudy BKN024 BKN034 BKN043 27.8 21.6 69% 30 75.97 0.0
01 13:35 SE 7 16.09 Overcast BKN024 BKN030 OVC045 27.7 21.7 70% 30 75.97 0.0
01 13:15 S 9 16.09 Mostly Cloudy SCT026 BKN033 BKN039 28.9 21.9 66% 32 76 0.0
01 12:55 Calm 16.09 Mostly Cloudy SCT026 BKN031 BKN039 28.6 21.8 29.1 20.1 67% 31 76 0.0
01 12:35 S 7 16.09 Mostly Cloudy BKN027 BKN034 BKN040 28.3 21.2 65% 31 76.02 0.0
01 12:15 S 6 16.09 Overcast BKN027 OVC034 28.1 21.2 66% 30 76.02 0.0
01 11:55 SW 7 16.09 Mostly Cloudy BKN027 BKN036 BKN046 28.2 21.2 66% 30 76.02 0.0
01 11:35 SE 7 16.09 Mostly Cloudy BKN023 BKN031 28.1 21.4 67% 30 76.05 0.0
01 11:15 Calm 16.09 Mostly Cloudy BKN023 BKN029 26.9 21.5 72% 29 76.05 0.0
01 10:55 Calm 16.09 Mostly Cloudy BKN021 BKN028 26 21.6 77% 28 76.05 0.0
01 10:35 NE 6 16.09 Mostly Cloudy BKN021 27 21.8 73% 29 76.05 0.0
01 10:15 Calm 16.09 Fair CLR 26.8 22.1 75% 29 76.05 0.0
01 09:55 SE 7 16.09 Partly Cloudy SCT024 25.8 22 80% 27 76.05 0.0
01 09:35 Calm 16.09 Mostly Cloudy BKN024 24.2 21.7 86% 24 76.05 0.0
01 09:15 N 7 16.09 Partly Cloudy SCT024 23 21.4 91% 76.07 0.0
01 08:50 NE 6 16.09 Fair CLR 24 22.3 90% 24 76.05 0.0
01 08:35 Calm 16.09 Fair CLR 24.1 22.5 91% 24 76.02 0.0
01 08:15 Calm 16.09 Fair CLR 23.5 22.4 94% 76.02 0.0
01 07:55 Calm 16.09 Fair CLR 23.2 22.3 95% 76.02 0.0
01 07:35 Calm 11.27 Fair CLR 21.9 21.3 96% 76.02 0.0
01 07:15 Calm 8.05 Fog/Mist CLR 21.2 20.7 97% 76 0.0
01 06:55 Calm 1.61 Fog/Mist VV007 20.1 19.6 22.5 19.5 97% 76 0.0
01 06:35 Calm 0.80 Fog VV005 19.7 19.1 96% 75.97 0.0
01 06:15 Calm 4.83 Fog/Mist CLR 20.1 19.5 96% 75.97 0.0
01 05:55 Calm 8.05 Fog/Mist SCT027 20.3 19.7 96% 75.97 0.0
01 05:35 N 7 11.27 Partly Cloudy SCT027 20.6 20.1 97% 75.97 0.0
01 05:15 N 6 11.27 Fair CLR 20.1 19.5 96% 75.97 0.0
01 04:55 N 6 8.05 Fog/Mist CLR 20.2 19.6 96% 75.95 0.0
01 04:35 Calm 8.05 Fog/Mist CLR 20.5 20 97% 75.95 0.0
01 04:15 N 6 6.44 Fog/Mist SCT029 20.7 20.1 96% 75.97 0.0
01 03:55 N 9 8.05 Fog/Mist SCT029 20.8 20.2 96% 75.95 0.0
01 03:35 N 6 8.05 Fog/Mist SCT029 20.5 20 97% 75.95 0.0
01 03:15 Calm 8.05 Fog/Mist CLR 20.6 20.1 97% 75.95 0.0
01 02:55 Calm 4.83 Fog/Mist CLR 20.7 20.1 96% 75.92 0.0
01 02:35 Calm 11.27 Mostly Cloudy BKN110 21.3 20.7 96% 75.92 0.0
01 02:15 Calm 16.09 Overcast OVC110 21.5 21 97% 75.92 0.0
01 01:55 Calm 16.09 Overcast OVC100 22 21.3 96% 75.9 0.0
01 01:35 Calm 16.09 Overcast OVC100 22.1 21.5 96% 75.92 0.0
01 01:15 Calm 16.09 Overcast OVC100 22.1 21.5 96% 75.92 0.0
01 00:55 Calm 16.09 Overcast OVC100 21.9 21.4 24.9 20.7 97% 75.92 0.0
01 00:35 W 6 16.09 Mostly Cloudy BKN110 22 21.4 96% 75.9 0.0
01 00:15 Calm 16.09 Fair CLR 21.6 21 96% 75.92 0.0
31 23:50 Calm 16.09 Fair CLR 21.5 21 97% 75.9 0.0
31 23:35 SW 6 16.09 Fair CLR 21.5 21 97% 75.9 0.0
31 23:15 Calm 16.09 Fair CLR 21.1 20.6 97% 75.9 0.0
31 22:55 S 6 16.09 Fair CLR 20.9 20.4 97% 75.9 0.0
31 22:35 Calm 16.09 Fair CLR 20.8 20.3 97% 75.9 0.0
31 22:15 Calm 16.09 Fair CLR 21.1 20.5 96% 75.92 0.0
31 21:55 Calm 16.09 Fair CLR 21.6 21.1 97% 75.92 0.0
31 21:35 Calm 16.09 Partly Cloudy SCT040 21.8 21.2 96% 75.92 0.0
31 21:15 Calm 16.09 Partly Cloudy SCT040 21.6 21.1 97% 75.92 0.0
31 20:55 Calm 16.09 Fair CLR 21.6 21 96% 75.92 0.0
31 20:35 Calm 16.09 Fair CLR 22 21.5 97% 75.9 0.0
31 20:10 Calm 16.09 Fair CLR 22.2 21.7 97% 75.87 0.0
31 19:55 Calm 16.09 Fair CLR 22.5 22 97% 75.87 0.0
31 19:35 Calm 16.09 Fair CLR 23.1 22 94% 75.84 0.0
31 19:10 Calm 16.09 Fair CLR 24.4 22.1 87% 25 75.84 0.0
31 18:35 Calm 16.09 Fair CLR 25.8 21.7 78% 27 75.82 0.0
31 18:15 Calm 16.09 Fair CLR 25.5 21.9 81% 27 75.79 0.0
31 17:55 Calm 16.09 Fair CLR 25.6 21.4 78% 27 75.79 0.0
31 17:35 Calm 16.09 Fair CLR 26 21 74% 27 75.79 0.0
31 17:15 W 6 16.09 Fair CLR 26.5 21.2 73% 28 75.82 0.0
31 16:55 W 9 16.09 Fair CLR 27.3 21.1 69% 29 75.79 0.0
31 16:35 SW 7 16.09 Fair CLR 27.7 21.3 68% 30 75.77 0.0
31 16:15 SW 6 16.09 Fair CLR 26.7 20.8 70% 28 75.77 0.0
31 15:55 Calm 16.09 Fair CLR 25.9 20.5 72% 27 75.77 0.0
31 15:30 Calm 16.09 Fair CLR 25.6 20.1 72% 27 75.77 0.0
31 15:15 W 6 16.09 Fair CLR 26.4 20.2 69% 28 75.79 0.0
31 14:55 W 6 16.09 Fair CLR 26 20.4 71% 27 75.79 0.0
31 14:35 Calm 16.09 Fair CLR 26 19.5 67% 27 75.79 0.0
31 14:15 W 6 16.09 Fair CLR 26 19.6 68% 27 75.79 0.0
31 13:55 SW 11 16.09 Fair CLR 26.1 20.1 70% 27 75.82 0.0
31 13:35 W 6 16.09 Fair CLR 26.3 20.2 69% 28 75.79 0.0
31 13:15 W 17 16.09 Partly Cloudy SCT022 26.7 20.6 69% 28 75.82 0.0
31 12:55 Calm 16.09 Partly Cloudy SCT020 25.4 20.8 25.5 19.8 76% 27 75.79 0.0
31 12:35 S 6 16.09 Fair CLR 25 20.6 77% 26 75.79 0.0
31 12:15 S 9 16.09 Fair CLR 24.7 20.6 78% 25 75.82 0.0
31 11:55 S 11 16.09 Partly Cloudy SCT011 23.9 20.4 81% 24 75.82 0.0
31 11:35 S 11 16.09 Mostly Cloudy BKN011 23.7 20.4 82% 75.82 0.0
31 11:15 S 17 16.09 Overcast OVC011 23.3 20.4 84% 75.84 0.0
31 10:55 S 19 G 26 16.09 Overcast OVC009 22.7 20.4 87% 75.87 0.0
31 10:35 S 11 16.09 Overcast OVC007 22 20.6 92% 75.9 0.0
31 10:15 SE 17 G 31 16.09 Overcast OVC007 22.1 20.6 91% 75.9 0.0
31 09:55 SE 13 G 30 16.09 Mostly Cloudy BKN007 22.4 20.7 90% 75.92 0.0
31 09:35 SE 15 G 30 16.09 Mostly Cloudy BKN007 22.1 21 94% 75.9 0.0
31 09:15 SE 19 G 30 16.09 Mostly Cloudy BKN005 21.8 20.8 94% 75.92 0.0
31 08:55 SE 17 16.09 Mostly Cloudy BKN005 21.2 20.6 96% 75.92 0.0
31 08:35 S 15 G 28 16.09 Partly Cloudy SCT005 SCT070 20.6 20.1 97% 75.95 0.0
31 08:15 SE 15 11.27 Mostly Cloudy SCT003 BKN070 20.4 19.9 97% 75.95 0.0
31 07:55 S 13 4.83 Fog/Mist OVC003 20.3 19.7 96% 75.95 0.0
31 07:35 SE 11 2.82 Fog/Mist OVC003 20 19.4 96% 75.95 0.0
31 07:15 SE 9 2.82 Fog/Mist OVC003 19.8 19.2 96% 75.95 0.0
31 06:55 SE 11 0.80 Fog OVC003 19.8 19.2 19.8 19.3 96% 75.95 0.0
31 06:35 SE 9 0.80 Fog OVC003 19.7 19.2 97% 75.95 0.0
31 06:15 SE 9 0.80 Light Rain OVC003 19.6 19.1 97% 75.95 0.0
31 05:55 E 7 0.80 Light Drizzle OVC003 19.6 19 96% 75.95 0.0
31 05:35 E 6 1.61 Light Rain OVC001 19.6 19 96% 75.97 0.0
31 05:15 NE 6 2.82 Rain OVC001 19.6 19 96% 75.97 0.0
31 04:55 Calm 4.02 Rain OVC001 19.5 19 97% 75.97 0.0
31 04:35 S 6 0.80 Fog OVC001 19.5 19 97% 75.95 0.0
31 04:15 E 9 1.21 Fog/Mist OVC001 19.5 19 97% 75.95 0.0
31 03:55 E 11 3.22 Fog/Mist OVC001 19.5 19 97% 75.97 0.0
31 03:35 E 7 4.83 Fog/Mist OVC001 19.5 18.9 96% 76.02 0.0
31 03:15 E 7 6.44 Fog/Mist BKN003 OVC110 19.5 18.9 96% 76.02 0.0
31 02:55 E 6 6.44 Fog/Mist SCT003 OVC120 19.5 18.9 96% 76.05 0.0
31 02:35 E 6 6.44 Fog/Mist OVC003 19.5 18.9 96% 76.05 0.0
31 02:15 NE 9 4.83 Fog/Mist OVC003 19.4 18.8 96% 76.05 0.0
31 01:55 E 6 4.02 Fog/Mist OVC003 19.3 18.7 96% 76.02 0.0
31 01:35 Calm 6.44 Fog/Mist OVC003 19.3 18.7 96% 76.02 0.0
31 01:15 E 7 8.05 Fog/Mist OVC003 19.5 18.8 96% 76.02 0.0
Date Time (cdt) Wind (kph) Vis. (km) Weather Sky Cond. Air Dwpt Max. Min. Relative Humidity Wind Chill (°C) Heat Index (°C) altimeter (cm) sea level (mb) 1 hr 3 hr 6 hr
6 hour
Temperature (ºC) Pressure Precipitation (cm)